createdAt,value
2017-11-21T00:01:50.915Z,16.20
2017-11-21T00:04:20.761Z,15.70
2017-11-21T00:06:50.595Z,18.20
2017-11-21T00:09:20.449Z,19.50
2017-11-21T00:11:50.264Z,19.17
2017-11-21T00:14:19.816Z,22.77
2017-11-21T00:16:49.355Z,23.50
2017-11-21T00:19:18.890Z,22.37
2017-11-21T00:21:48.498Z,20.57
2017-11-21T00:24:18.052Z,25.50
2017-11-21T00:26:47.579Z,22.37
2017-11-21T00:29:17.134Z,19.67
2017-11-21T00:31:46.654Z,22.00
2017-11-21T00:34:16.220Z,20.60
2017-11-21T00:36:45.730Z,20.60
2017-11-21T00:39:15.287Z,22.90
2017-11-21T00:41:44.860Z,21.17
2017-11-21T00:44:14.410Z,22.83
2017-11-21T00:46:43.966Z,21.77
2017-11-21T00:49:13.494Z,21.73
2017-11-21T00:51:43.054Z,18.73
2017-11-21T00:54:12.627Z,18.67
2017-11-21T00:56:42.178Z,19.43
2017-11-21T00:59:11.707Z,28.07
2017-11-21T01:01:41.271Z,23.03
2017-11-21T01:04:10.803Z,25.60
2017-11-21T01:06:40.391Z,23.93
2017-11-21T01:09:09.722Z,25.23
2017-11-21T01:11:38.028Z,20.97
2017-11-21T01:14:06.356Z,22.20
2017-11-21T01:16:34.657Z,26.17
2017-11-21T01:19:02.979Z,25.03
2017-11-21T01:21:32.627Z,24.53
2017-11-21T01:24:00.846Z,28.03
2017-11-21T01:26:29.208Z,24.10
2017-11-21T01:28:57.726Z,28.37
2017-11-21T01:31:27.051Z,22.33
2017-11-21T01:33:55.364Z,20.87
2017-11-21T01:36:23.680Z,21.90
2017-11-21T01:38:51.974Z,22.27
2017-11-21T01:41:21.061Z,22.17
2017-11-21T01:43:50.115Z,23.13
2017-11-21T01:46:18.442Z,23.27
2017-11-21T01:48:46.750Z,23.30
2017-11-21T01:51:15.083Z,23.70
2017-11-21T01:53:44.134Z,21.33
2017-11-21T01:56:12.451Z,22.47
2017-11-21T01:58:41.532Z,19.17
2017-11-21T02:01:10.218Z,21.00
2017-11-21T02:03:39.284Z,23.30
2017-11-21T02:06:07.571Z,40.83
2017-11-21T02:08:35.916Z,24.40
2017-11-21T02:11:04.219Z,21.60
2017-11-21T02:13:32.542Z,27.40
2017-11-21T02:16:00.850Z,23.07
2017-11-21T02:18:29.177Z,43.03
2017-11-21T02:20:58.255Z,40.20
2017-11-21T02:23:27.375Z,37.93
2017-11-21T02:25:56.439Z,41.23
2017-11-21T02:28:24.781Z,24.63
2017-11-21T02:30:53.081Z,27.30
2017-11-21T02:33:21.384Z,39.20
2017-11-21T02:35:49.710Z,26.77
2017-11-21T02:38:18.015Z,32.47
2017-11-21T02:40:46.341Z,37.63
2017-11-21T02:43:14.818Z,35.53
2017-11-21T02:45:43.909Z,31.13
2017-11-21T02:48:13.004Z,41.47
2017-11-21T02:50:41.351Z,46.67
2017-11-21T02:53:09.652Z,30.33
2017-11-21T02:55:38.721Z,23.77
2017-11-21T02:58:07.043Z,30.13
2017-11-21T03:00:35.360Z,38.90
2017-11-21T03:03:05.059Z,32.57
2017-11-21T03:05:33.229Z,31.23
2017-11-21T03:08:01.576Z,21.90
2017-11-21T03:10:29.879Z,26.30
2017-11-21T03:12:58.207Z,29.10
2017-11-21T03:15:27.272Z,23.93
2017-11-21T03:17:55.605Z,23.43
2017-11-21T03:20:35.833Z,25.27
2017-11-21T03:23:16.195Z,24.63
2017-11-21T03:25:57.241Z,22.87
2017-11-21T03:28:37.460Z,24.70
2017-11-21T03:31:05.762Z,23.30
2017-11-21T03:33:34.066Z,29.83
2017-11-21T03:36:03.164Z,27.53
2017-11-21T03:38:31.539Z,27.30
2017-11-21T03:40:59.891Z,35.17
2017-11-21T03:43:28.996Z,28.03
2017-11-21T03:45:57.315Z,31.00
2017-11-21T03:48:25.615Z,30.60
2017-11-21T03:50:53.958Z,24.33
2017-11-21T03:53:23.010Z,22.63
2017-11-21T03:55:51.528Z,22.23
2017-11-21T03:58:20.615Z,21.07
2017-11-21T04:00:54.468Z,23.07
2017-11-21T04:03:22.769Z,28.10
2017-11-21T04:05:51.075Z,28.43
2017-11-21T04:08:19.397Z,33.60
2017-11-21T04:10:47.731Z,27.07
2017-11-21T04:13:16.068Z,24.83
2017-11-21T04:15:44.378Z,32.27
2017-11-21T04:18:12.702Z,26.97
2017-11-21T04:20:42.647Z,24.80
2017-11-21T04:23:12.511Z,26.87
2017-11-21T04:25:42.339Z,25.63
2017-11-21T04:28:12.182Z,25.13
2017-11-21T04:30:42.080Z,19.83
2017-11-21T04:33:11.935Z,19.27
2017-11-21T04:35:41.811Z,18.27
2017-11-21T04:38:11.618Z,20.23
2017-11-21T04:40:41.469Z,17.17
2017-11-21T04:43:09.640Z,16.87
2017-11-21T04:45:37.965Z,20.10
2017-11-21T04:48:07.599Z,21.20
2017-11-21T04:50:37.158Z,18.33
2017-11-21T04:53:06.752Z,17.43
2017-11-21T04:55:34.968Z,18.80
2017-11-21T04:58:03.262Z,22.40
2017-11-21T05:00:31.539Z,20.10
2017-11-21T05:02:59.863Z,19.13
2017-11-21T05:05:28.171Z,20.33
2017-11-21T05:07:56.474Z,21.37
2017-11-21T05:10:24.773Z,20.57
2017-11-21T05:12:53.152Z,24.70
2017-11-21T05:15:21.459Z,25.80
2017-11-21T05:17:49.767Z,23.30
2017-11-21T05:20:18.065Z,19.27
2017-11-21T05:22:46.390Z,28.27
2017-11-21T05:25:14.718Z,33.87
2017-11-21T05:27:43.022Z,35.03
2017-11-21T05:30:12.928Z,30.13
2017-11-21T05:32:53.060Z,27.80
2017-11-21T05:35:21.386Z,25.53
2017-11-21T05:37:49.684Z,29.80
2017-11-21T05:40:17.992Z,30.97
2017-11-21T05:42:46.293Z,33.43
2017-11-21T05:45:15.401Z,36.60
2017-11-21T05:47:44.468Z,36.60
2017-11-21T05:50:14.233Z,33.00
2017-11-21T05:52:43.774Z,29.93
2017-11-21T05:55:13.323Z,42.50
2017-11-21T05:57:42.868Z,47.40
2017-11-21T06:00:11.087Z,43.30
2017-11-21T06:02:39.431Z,46.90
2017-11-21T06:05:07.715Z,45.60
2017-11-21T06:07:36.025Z,48.07
2017-11-21T06:10:04.340Z,47.93
2017-11-21T06:12:32.701Z,34.53
2017-11-21T06:15:01.025Z,36.37
2017-11-21T06:17:29.335Z,42.53
2017-11-21T06:19:57.635Z,46.53
2017-11-21T06:22:25.960Z,45.00
2017-11-21T06:24:55.030Z,33.03
2017-11-21T06:27:23.369Z,34.77
2017-11-21T06:29:51.673Z,35.80
2017-11-21T06:32:20.020Z,41.67
2017-11-21T06:34:49.058Z,31.67
2017-11-21T06:37:18.147Z,34.40
2017-11-21T06:39:47.263Z,33.07
2017-11-21T06:42:16.381Z,33.87
2017-11-21T06:44:45.480Z,35.80
2017-11-21T06:47:13.896Z,36.20
2017-11-21T06:49:42.231Z,39.00
2017-11-21T06:52:11.296Z,34.03
2017-11-21T06:54:39.622Z,32.10
2017-11-21T06:57:07.975Z,41.80
2017-11-21T06:59:36.280Z,36.27
2017-11-21T07:02:04.575Z,35.57
2017-11-21T07:04:32.903Z,38.20
2017-11-21T07:07:01.977Z,34.30
2017-11-21T07:09:30.265Z,38.93
2017-11-21T07:11:59.363Z,36.27
2017-11-21T07:14:28.423Z,38.97
2017-11-21T07:16:57.558Z,34.30
2017-11-21T07:19:26.658Z,39.63
2017-11-21T07:21:54.985Z,41.63
2017-11-21T07:24:23.280Z,35.40
2017-11-21T07:26:51.605Z,39.70
2017-11-21T07:29:19.918Z,38.70
2017-11-21T07:31:48.262Z,40.47
2017-11-21T07:34:17.381Z,34.63
2017-11-21T07:36:45.670Z,32.00
2017-11-21T07:39:14.016Z,34.90
2017-11-21T07:41:43.392Z,34.23
2017-11-21T07:44:11.729Z,31.10
2017-11-21T07:46:40.029Z,35.27
2017-11-21T07:49:09.123Z,35.27
2017-11-21T07:51:37.424Z,31.50
2017-11-21T07:54:05.758Z,30.97
2017-11-21T07:56:34.049Z,28.10
2017-11-21T07:59:03.176Z,32.57
2017-11-21T08:01:31.487Z,36.23
2017-11-21T08:03:59.820Z,33.60
2017-11-21T08:06:28.213Z,37.57
2017-11-21T08:08:56.509Z,41.93
2017-11-21T08:11:24.835Z,43.80
2017-11-21T08:13:53.923Z,43.97
2017-11-21T08:16:22.252Z,35.67
2017-11-21T08:18:50.559Z,39.30
2017-11-21T08:21:18.897Z,41.57
2017-11-21T08:23:47.198Z,42.33
2017-11-21T08:26:15.540Z,43.93
2017-11-21T08:28:43.859Z,48.60
2017-11-21T08:31:12.151Z,48.13
2017-11-21T08:33:41.263Z,43.83
2017-11-21T08:36:10.367Z,34.87
2017-11-21T08:38:38.708Z,42.57
2017-11-21T08:41:07.007Z,32.00
2017-11-21T08:43:36.104Z,27.40
2017-11-21T08:46:05.159Z,28.47
2017-11-21T08:48:33.500Z,29.67
2017-11-21T08:51:01.819Z,33.70
2017-11-21T08:53:30.164Z,25.53
2017-11-21T08:55:58.469Z,26.53
2017-11-21T08:58:26.775Z,24.37
2017-11-21T09:00:55.874Z,28.40
2017-11-21T09:03:24.224Z,29.00
2017-11-21T09:05:52.578Z,35.30
2017-11-21T09:08:20.891Z,31.73
2017-11-21T09:10:49.221Z,25.57
2017-11-21T09:13:17.558Z,24.33
2017-11-21T09:15:46.667Z,27.47
2017-11-21T09:18:14.981Z,33.50
2017-11-21T09:20:43.290Z,27.63
2017-11-21T09:23:11.647Z,31.40
2017-11-21T09:25:39.953Z,27.50
2017-11-21T09:28:09.057Z,27.50
2017-11-21T09:30:38.123Z,26.47
2017-11-21T09:33:06.446Z,26.83
2017-11-21T09:35:34.762Z,31.70
2017-11-21T09:38:03.077Z,31.20
2017-11-21T09:40:31.379Z,27.30
2017-11-21T09:42:59.712Z,26.40
2017-11-21T09:45:28.036Z,28.07
2017-11-21T09:47:57.111Z,34.90
2017-11-21T09:50:26.176Z,26.10
2017-11-21T09:52:54.563Z,29.00
2017-11-21T09:55:22.856Z,26.07
2017-11-21T09:57:51.940Z,28.30
2017-11-21T10:00:21.044Z,29.03
2017-11-21T10:02:49.402Z,22.93
2017-11-21T10:05:17.723Z,24.03
2017-11-21T10:07:46.040Z,30.80
2017-11-21T10:10:14.370Z,29.77
2017-11-21T10:12:44.043Z,26.87
2017-11-21T10:15:13.686Z,27.43
2017-11-21T10:17:43.479Z,28.57
2017-11-21T10:20:13.036Z,33.70
2017-11-21T10:22:42.600Z,26.77
2017-11-21T10:25:12.129Z,27.30
2017-11-21T10:27:41.694Z,26.27
2017-11-21T10:30:11.212Z,29.33
2017-11-21T10:32:40.794Z,30.57
2017-11-21T10:35:10.337Z,31.63
2017-11-21T10:37:39.915Z,34.40
2017-11-21T10:40:09.504Z,32.77
2017-11-21T10:42:39.078Z,32.30
2017-11-21T10:45:08.635Z,34.83
2017-11-21T10:47:38.163Z,29.43
2017-11-21T10:50:07.727Z,26.20
2017-11-21T10:52:37.271Z,28.10
2017-11-21T10:55:06.827Z,31.63
2017-11-21T10:57:36.347Z,21.60
2017-11-21T11:00:05.958Z,30.57
2017-11-21T11:02:35.467Z,21.50
2017-11-21T11:05:05.891Z,22.70
2017-11-21T11:07:36.265Z,19.30
2017-11-21T11:10:05.857Z,19.73
2017-11-21T11:12:35.459Z,19.93
2017-11-21T11:15:05.038Z,19.90
2017-11-21T11:17:34.685Z,26.40
2017-11-21T11:20:04.206Z,33.00
2017-11-21T11:22:33.800Z,26.97
2017-11-21T11:25:03.313Z,27.00
2017-11-21T11:27:32.860Z,21.97
2017-11-21T11:30:02.417Z,17.90
2017-11-21T11:32:31.980Z,22.63
2017-11-21T11:35:01.522Z,30.40
2017-11-21T11:37:31.132Z,32.00
2017-11-21T11:40:00.661Z,29.07
2017-11-21T11:42:30.238Z,22.77
2017-11-21T11:44:59.758Z,30.93
2017-11-21T11:47:44.650Z,33.13
2017-11-21T11:50:14.196Z,29.50
2017-11-21T11:52:43.759Z,24.03
2017-11-21T11:55:13.314Z,27.43
2017-11-21T11:57:42.852Z,25.53
2017-11-21T12:00:12.431Z,26.90
2017-11-21T12:02:41.979Z,31.47
2017-11-21T12:05:11.816Z,28.47
2017-11-21T12:07:41.359Z,26.43
2017-11-21T12:10:11.808Z,26.17
2017-11-21T12:12:41.376Z,26.70
2017-11-21T12:15:10.968Z,26.57
2017-11-21T12:17:40.479Z,24.30
2017-11-21T12:20:10.044Z,27.93
2017-11-21T12:22:39.592Z,28.77
2017-11-21T12:25:09.134Z,33.57
2017-11-21T12:27:38.754Z,35.00
2017-11-21T12:30:08.327Z,25.90
2017-11-21T12:32:37.883Z,40.77
2017-11-21T12:35:07.432Z,35.33
2017-11-21T12:37:37.003Z,34.57
2017-11-21T12:40:06.534Z,34.50
2017-11-21T12:42:36.113Z,37.70
2017-11-21T12:45:05.638Z,39.90
2017-11-21T12:47:35.215Z,34.03
2017-11-21T12:50:04.810Z,40.03
2017-11-21T12:52:34.335Z,34.30
2017-11-21T12:55:03.880Z,30.90
2017-11-21T12:57:33.427Z,32.97
2017-11-21T13:00:03.063Z,29.77
2017-11-21T13:02:32.616Z,27.60
2017-11-21T13:05:02.180Z,27.23
2017-11-21T13:07:31.742Z,26.97
2017-11-21T13:10:01.271Z,27.10
2017-11-21T13:12:30.863Z,25.40
2017-11-21T13:15:00.400Z,29.57
2017-11-21T13:17:29.982Z,28.70
2017-11-21T13:19:59.514Z,27.87
2017-11-21T13:22:29.119Z,27.60
2017-11-21T13:24:58.656Z,21.87
2017-11-21T13:27:28.212Z,31.03
2017-11-21T13:29:57.736Z,29.63
2017-11-21T13:32:27.303Z,26.10
2017-11-21T13:34:56.835Z,31.33
2017-11-21T13:37:26.407Z,27.00
2017-11-21T13:39:55.979Z,25.07
2017-11-21T13:42:25.535Z,27.97
2017-11-21T13:44:55.094Z,45.93
2017-11-21T13:47:24.666Z,32.23
2017-11-21T13:49:54.238Z,39.90
2017-11-21T13:52:23.788Z,62.07
2017-11-21T13:54:53.359Z,28.80
2017-11-21T13:57:22.898Z,40.67
2017-11-21T13:59:52.480Z,33.67
2017-11-21T14:02:22.086Z,35.27
2017-11-21T14:04:51.653Z,32.60
2017-11-21T14:07:21.222Z,33.30
2017-11-21T14:09:50.778Z,25.30
2017-11-21T14:12:20.346Z,23.20
2017-11-21T14:14:49.914Z,42.80
2017-11-21T14:17:19.481Z,46.37
2017-11-21T14:19:49.003Z,36.63
2017-11-21T14:22:18.694Z,28.40
2017-11-21T14:24:47.007Z,30.87
2017-11-21T14:27:15.375Z,30.57
2017-11-21T14:29:43.756Z,31.37
2017-11-21T14:32:12.086Z,31.40
2017-11-21T14:34:40.474Z,29.77
2017-11-21T14:37:08.791Z,25.30
2017-11-21T14:39:37.171Z,41.40
2017-11-21T14:42:05.476Z,27.57
2017-11-21T14:44:33.823Z,35.00
2017-11-21T14:47:02.722Z,30.53
2017-11-21T14:49:31.133Z,43.07
2017-11-21T14:51:59.488Z,24.23
2017-11-21T14:54:27.921Z,27.00
2017-11-21T14:56:56.296Z,29.20
2017-11-21T14:59:24.623Z,47.23
2017-11-21T15:01:52.948Z,39.90
2017-11-21T15:04:21.324Z,37.90
2017-11-21T15:06:49.740Z,36.20
2017-11-21T15:09:18.134Z,26.50
2017-11-21T15:11:46.481Z,25.97
2017-11-21T15:14:14.804Z,34.03
2017-11-21T15:16:43.184Z,33.40
2017-11-21T15:19:11.479Z,40.23
2017-11-21T15:21:40.623Z,32.73
2017-11-21T15:24:08.948Z,39.80
2017-11-21T15:26:37.326Z,30.63
2017-11-21T15:29:05.674Z,39.43
2017-11-21T15:31:34.215Z,37.87
2017-11-21T15:34:02.564Z,41.90
2017-11-21T15:36:30.876Z,38.27
2017-11-21T15:38:59.232Z,41.10
2017-11-21T15:41:27.560Z,42.33
2017-11-21T15:43:55.897Z,41.03
2017-11-21T15:46:24.215Z,37.13
2017-11-21T15:48:52.567Z,38.23
2017-11-21T15:51:20.890Z,26.83
2017-11-21T15:53:49.976Z,30.20
2017-11-21T15:56:19.104Z,23.83
2017-11-21T15:58:47.447Z,42.83
2017-11-21T16:01:16.551Z,29.90
2017-11-21T16:03:44.865Z,25.37
2017-11-21T16:06:13.228Z,31.27
2017-11-21T16:08:41.566Z,28.50
2017-11-21T16:11:09.865Z,31.47
2017-11-21T16:13:38.238Z,34.10
2017-11-21T16:16:06.631Z,28.27
2017-11-21T16:18:34.982Z,39.77
2017-11-21T16:21:03.335Z,45.37
2017-11-21T16:23:31.655Z,36.53
2017-11-21T16:26:00.784Z,36.23
2017-11-21T16:28:29.139Z,26.80
2017-11-21T16:30:57.443Z,40.47
2017-11-21T16:33:25.815Z,38.07
2017-11-21T16:35:54.119Z,35.90
2017-11-21T16:38:23.499Z,42.07
2017-11-21T16:40:51.919Z,30.50
2017-11-21T16:43:21.000Z,31.70
2017-11-21T16:45:49.583Z,37.50
2017-11-21T16:48:18.906Z,24.40
2017-11-21T16:50:48.004Z,37.90
2017-11-21T16:53:17.212Z,36.10
2017-11-21T16:55:45.554Z,29.70
2017-11-21T16:58:14.899Z,26.67
2017-11-21T17:00:43.677Z,45.77
2017-11-21T17:03:12.006Z,26.43
2017-11-21T17:05:40.405Z,39.80
2017-11-21T17:08:09.509Z,45.80
2017-11-21T17:10:37.848Z,35.20
2017-11-21T17:13:06.193Z,36.97
2017-11-21T17:15:34.523Z,35.93
2017-11-21T17:18:02.890Z,35.77
2017-11-21T17:20:31.219Z,51.47
2017-11-21T17:22:59.575Z,45.10
2017-11-21T17:25:27.912Z,36.63
2017-11-21T17:27:56.253Z,30.20
2017-11-21T17:30:24.567Z,39.10
2017-11-21T17:32:52.914Z,34.17
2017-11-21T17:35:21.254Z,35.17
2017-11-21T17:37:49.595Z,25.57
2017-11-21T17:40:17.969Z,31.33
2017-11-21T17:42:46.528Z,29.80
2017-11-21T17:45:14.893Z,30.20
2017-11-21T17:47:43.531Z,20.53
2017-11-21T17:50:11.919Z,37.30
2017-11-21T17:52:40.317Z,32.67
2017-11-21T17:55:08.671Z,29.37
2017-11-21T17:57:36.991Z,18.77
2017-11-21T18:00:05.876Z,21.03
2017-11-21T18:02:34.663Z,27.03
2017-11-21T18:05:03.752Z,32.40
2017-11-21T18:07:32.847Z,36.40
2017-11-21T18:10:01.485Z,34.27
2017-11-21T18:12:29.811Z,29.73
2017-11-21T18:14:58.145Z,41.67
2017-11-21T18:17:26.497Z,38.90
2017-11-21T18:19:54.837Z,38.77
2017-11-21T18:22:23.967Z,22.70
2017-11-21T18:24:52.314Z,26.27
2017-11-21T18:27:20.685Z,25.53
2017-11-21T18:29:49.298Z,22.00
2017-11-21T18:32:17.701Z,24.70
2017-11-21T18:34:46.428Z,25.43
2017-11-21T18:37:14.812Z,29.73
2017-11-21T18:39:43.906Z,40.80
2017-11-21T18:42:12.247Z,32.43
2017-11-21T18:44:40.602Z,28.63
2017-11-21T18:47:08.914Z,32.10
2017-11-21T18:49:37.248Z,29.60
2017-11-21T18:52:05.562Z,30.23
2017-11-21T18:54:35.608Z,33.40
2017-11-21T18:57:03.946Z,26.17
2017-11-21T18:59:32.271Z,30.23
2017-11-21T19:02:00.599Z,29.77
2017-11-21T19:04:28.910Z,33.93
2017-11-21T19:06:57.248Z,31.23
2017-11-21T19:09:25.568Z,30.63
2017-11-21T19:11:53.946Z,24.57
2017-11-21T19:14:22.303Z,29.20
2017-11-21T19:16:51.358Z,32.77
2017-11-21T19:19:19.727Z,31.57
2017-11-21T19:21:48.557Z,27.30
2017-11-21T19:24:17.022Z,39.57
2017-11-21T19:26:45.439Z,28.30
2017-11-21T19:29:14.554Z,25.40
2017-11-21T19:31:44.805Z,29.47
2017-11-21T19:34:14.084Z,36.13
2017-11-21T19:36:42.451Z,31.53
2017-11-21T19:39:11.758Z,37.43
2017-11-21T19:41:40.113Z,32.33
2017-11-21T19:44:08.527Z,36.90
2017-11-21T19:46:36.872Z,44.97
2017-11-21T19:49:07.954Z,35.50
2017-11-21T19:51:41.519Z,33.37
2017-11-21T19:54:09.863Z,33.30
2017-11-21T19:56:38.191Z,39.00
2017-11-21T19:59:06.513Z,41.10
2017-11-21T20:01:34.879Z,36.70
2017-11-21T20:04:03.264Z,42.60
2017-11-21T20:06:31.608Z,40.67
2017-11-21T20:09:00.021Z,43.47
2017-11-21T20:11:29.168Z,44.20
2017-11-21T20:13:58.227Z,42.70
2017-11-21T20:16:26.603Z,34.47
2017-11-21T20:18:54.931Z,38.97
2017-11-21T20:21:23.244Z,37.90
2017-11-21T20:23:51.566Z,32.57
2017-11-21T20:26:20.743Z,37.90
2017-11-21T20:28:49.844Z,50.03
2017-11-21T20:31:18.935Z,36.33
2017-11-21T20:33:47.301Z,34.80
2017-11-21T20:36:16.428Z,35.50
2017-11-21T20:38:44.836Z,41.20
2017-11-21T20:41:13.157Z,36.43
2017-11-21T20:43:41.488Z,34.67
2017-11-21T20:46:09.800Z,43.50
2017-11-21T20:48:38.160Z,37.77
2017-11-21T20:51:06.524Z,37.30
2017-11-21T20:53:34.864Z,40.90
2017-11-21T20:56:03.937Z,38.03
2017-11-21T20:58:33.391Z,42.87
2017-11-21T21:01:01.760Z,39.53
2017-11-21T21:03:30.098Z,32.77
2017-11-21T21:05:59.246Z,45.60
2017-11-21T21:08:27.611Z,37.37
2017-11-21T21:10:56.104Z,37.10
2017-11-21T21:13:25.344Z,36.00
2017-11-21T21:15:53.669Z,36.57
2017-11-21T21:18:22.090Z,33.90
2017-11-21T21:20:50.404Z,46.50
2017-11-21T21:23:18.773Z,39.70
2017-11-21T21:25:47.272Z,38.40
2017-11-21T21:28:15.594Z,42.50
2017-11-21T21:30:43.951Z,46.83
2017-11-21T21:33:12.316Z,39.13
2017-11-21T21:35:40.647Z,48.30
2017-11-21T21:38:09.782Z,45.07
2017-11-21T21:40:38.449Z,52.67
2017-11-21T21:43:07.519Z,50.10
2017-11-21T21:45:35.897Z,47.33
2017-11-21T21:48:04.235Z,43.53
2017-11-21T21:50:32.550Z,49.50
2017-11-21T21:53:00.934Z,39.50
2017-11-21T21:55:29.231Z,50.20
2017-11-21T21:57:58.345Z,40.17
2017-11-21T22:00:26.729Z,49.57
2017-11-21T22:02:55.049Z,49.97
2017-11-21T22:05:23.403Z,47.67
2017-11-21T22:07:51.718Z,40.17
2017-11-21T22:10:20.820Z,32.97
2017-11-21T22:12:49.888Z,34.70
2017-11-21T22:15:18.227Z,29.80
2017-11-21T22:17:46.551Z,32.20
2017-11-21T22:20:14.955Z,31.50
2017-11-21T22:22:44.135Z,32.63
2017-11-21T22:25:13.248Z,35.30
2017-11-21T22:27:42.671Z,35.50
2017-11-21T22:30:10.981Z,40.23
2017-11-21T22:32:39.327Z,34.97
2017-11-21T22:35:07.712Z,33.17
2017-11-21T22:37:36.024Z,31.70
2017-11-21T22:40:04.319Z,30.60
2017-11-21T22:42:33.430Z,30.17
2017-11-21T22:45:01.739Z,32.80
2017-11-21T22:47:30.056Z,28.23
2017-11-21T22:49:58.404Z,28.27
2017-11-21T22:52:26.708Z,24.00
2017-11-21T22:54:56.246Z,28.90
2017-11-21T22:57:25.352Z,36.97
2017-11-21T22:59:53.672Z,35.50
2017-11-21T23:02:22.767Z,35.10
2017-11-21T23:04:51.111Z,35.70
2017-11-21T23:07:19.419Z,36.13
2017-11-21T23:09:47.756Z,38.73
2017-11-21T23:12:16.067Z,34.60
2017-11-21T23:14:44.429Z,34.10
2017-11-21T23:17:12.792Z,33.10
2017-11-21T23:19:41.095Z,32.67
2017-11-21T23:22:09.443Z,38.77
2017-11-21T23:24:37.754Z,31.90
2017-11-21T23:27:06.045Z,34.67
2017-11-21T23:29:35.178Z,38.23
2017-11-21T23:32:03.516Z,34.93
2017-11-21T23:34:32.636Z,38.37
2017-11-21T23:37:01.696Z,38.17
2017-11-21T23:39:30.025Z,33.20
2017-11-21T23:41:58.358Z,34.23
2017-11-21T23:44:28.163Z,32.77
2017-11-21T23:46:56.513Z,31.10
2017-11-21T23:49:24.803Z,32.57
2017-11-21T23:51:53.150Z,33.87
2017-11-21T23:54:21.491Z,25.17
2017-11-21T23:56:49.809Z,31.87
2017-11-21T23:59:18.136Z,30.10
